Flight Track Log - Related Links

Times and Time Zones

All times are in EDT time to prevent confusion due to time zone crossing. See the ASQ4514 flight status page for this flight to view local times or setup timezone preferences in your user account.

Time Position Orientation Groundspeed Altitude Reporting Facility
EDT Latitude Longitude Course Direction KTS MPH feet Rate Location/Type
Thu 08:40:39 AM 38.8833 -77.4333 180° South 196 226 2,100  Level Potomac TRACON
Thu 08:41:39 AM 38.8167 -77.4333 180° South 261 300 3,700 2,050 Climbing Potomac TRACON
Thu 08:42:39 AM 38.7500 -77.4833 210° Southwest 254 292 6,200 2,350 Climbing Potomac TRACON
Thu 08:43:39 AM 38.7000 -77.5333 218° Southwest 256 295 8,400 1,485 Climbing Potomac TRACON
Thu 08:45:53 AM 38.5597 -77.6758 218° Southwest 289 333 11,000 1,077 Climbing Washington Center
Thu 08:46:54 AM 38.4958 -77.7511 223° Southwest 310 357 11,900 1,059 Climbing Washington Center
Thu 08:47:52 AM 38.4419 -77.8503 235° Southwest 324 373 13,100 1,322 Climbing Washington Center
Thu 08:48:52 AM 38.3919 -77.9494 237° Southwest 336 387 14,500 1,289 Climbing Washington Center
Thu 08:49:53 AM 38.3400 -78.0483 236° Southwest 341 392 15,700 1,200 Climbing Washington Center
Thu 08:50:52 AM 38.2878 -78.1497 237° Southwest 341 392 16,900 1,109 Climbing Washington Center
Thu 08:51:52 AM 38.2336 -78.2483 235° Southwest 341 392 17,900 1,050 Climbing Washington Center
Thu 08:52:52 AM 38.1814 -78.3469 236° Southwest 341 392 19,000 1,033 Climbing Washington Center
Thu 08:53:54 AM 38.1267 -78.4506 236° Southwest 341 392 20,000 950 Climbing Washington Center
Thu 08:54:52 AM 38.0928 -78.5547 248° West 341 392 20,900 958 Climbing Washington Center
Thu 08:55:53 AM 38.0483 -78.6636 243° Southwest 346 398 21,900 984 Climbing Washington Center
Thu 08:56:54 AM 37.9856 -78.7614 231° Southwest 352 405 22,900 1,008 Climbing Washington Center
Thu 08:57:52 AM 37.9225 -78.8561 230° Southwest 357 411 23,900 1,068 Climbing Washington Center
Thu 08:58:52 AM 37.8594 -78.9481 229° Southwest 357 411 25,000 1,022 Climbing Washington Center
Thu 09:00:00 AM 37.7864 -79.0438 238° Southwest  Level FlightAware Approximate
Thu 09:00:54 AM 37.7328 -79.1392 238° Southwest 357 411 27,000  Level Washington Center
Thu 09:01:54 AM 37.6653 -79.2411 230° Southwest 352 405 28,200 1,050 Climbing Washington Center
Thu 09:02:54 AM 37.6083 -79.3247 229° Southwest 347 399 29,100 1,017 Climbing Washington Center
Thu 09:03:52 AM 37.5406 -79.4264 230° Southwest 347 399 30,200 1,033 Climbing Washington Center
Thu 09:05:00 AM 37.4572 -79.5202 225° Southwest  Level FlightAware Approximate
Thu 09:05:54 AM 37.4158 -79.6056 225° Southwest 358 412 32,200  Level Washington Center
Thu 09:06:52 AM 37.3497 -79.7042 230° Southwest 357 411 33,200 908 Climbing Washington Center
Thu 09:07:53 AM 37.2883 -79.7947 230° Southwest 349 402 34,000 397 Climbing Washington Center
Thu 09:08:53 AM 37.2244 -79.8903 230° Southwest 349 402 34,000  Level Washington Center
Thu 09:10:53 AM 37.0833 -80.0919 229° Southwest 375 432 34,000  Level Atlanta Center
Thu 09:11:53 AM 37.0075 -80.1997 229° Southwest 400 460 34,000  Level Atlanta Center
Thu 09:12:53 AM 36.9339 -80.3097 230° Southwest 406 467 34,000  Level Atlanta Center
Thu 09:13:53 AM 36.8597 -80.4144 229° Southwest 412 474 34,000  Level Atlanta Center
Thu 09:14:53 AM 36.7836 -80.5242 229° Southwest 412 474 34,000  Level Atlanta Center
Thu 09:15:53 AM 36.7078 -80.6364 230° Southwest 412 474 34,000  Level Atlanta Center
Thu 09:16:53 AM 36.6356 -80.7428 230° Southwest 412 474 34,000  Level Atlanta Center
Thu 09:17:53 AM 36.5592 -80.8494 228° Southwest 412 474 34,000  Level Atlanta Center
Thu 09:18:53 AM 36.4806 -80.9611 229° Southwest 417 480 34,000  Level Atlanta Center
Thu 09:19:53 AM 36.4042 -81.0697 229° Southwest 417 480 34,000  Level Atlanta Center
Thu 09:21:53 AM 36.2528 -81.2889 228° Southwest 422 486 34,000  Level Atlanta Center
Thu 09:22:53 AM 36.1758 -81.3969 229° Southwest 422 486 34,000  Level Atlanta Center
Thu 09:23:53 AM 36.0989 -81.5050 229° Southwest 422 486 34,000  Level Atlanta Center
Thu 09:24:53 AM 36.0258 -81.6075 229° Southwest 416 479 34,000  Level Atlanta Center
Thu 09:25:53 AM 35.9486 -81.7122 228° Southwest 416 479 34,000  Level Atlanta Center
Thu 09:26:53 AM 35.8756 -81.8169 229° Southwest 416 479 34,000  Level Atlanta Center
Thu 09:27:53 AM 35.7958 -81.9214 227° Southwest 416 479 34,000 -100 Level Atlanta Center
Thu 09:28:53 AM 35.7206 -82.0206 227° Southwest 416 479 33,800 -750 Descending Atlanta Center
Thu 09:29:53 AM 35.6406 -82.1222 226° Southwest 411 473 32,500 -1,350 Descending Atlanta Center
Thu 09:30:53 AM 35.5567 -82.2264 225° Southwest 411 473 31,100 -1,400 Descending Atlanta Center
Thu 09:31:53 AM 35.4728 -82.3353 227° Southwest 421 484 29,700 -1,433 Descending Atlanta Center
Thu 09:33:53 AM 35.3106 -82.5372 224° Southwest 438 504 26,800 -1,300 Descending Atlanta Center
Thu 09:34:53 AM 35.2264 -82.6403 225° Southwest 431 496 25,800 -1,100 Descending Atlanta Center
Thu 09:35:53 AM 35.1439 -82.7458 226° Southwest 431 496 24,600 -1,000 Descending Atlanta Center
Thu 09:36:53 AM 35.0636 -82.8486 226° Southwest 431 496 23,800 -867 Descending Atlanta Center
Thu 09:38:53 AM 34.9028 -83.0561 227° Southwest 426 490 22,000 -600 Descending Atlanta Center
Thu 09:39:53 AM 34.8242 -83.1583 227° Southwest 420 483 22,000  Level Atlanta Center
Thu 09:40:53 AM 34.7433 -83.2578 225° Southwest 420 483 22,000  Level Atlanta Center
Thu 09:41:53 AM 34.6628 -83.3619 227° Southwest 420 483 22,000  Level Atlanta Center
Thu 09:42:53 AM 34.5819 -83.4661 227° Southwest 426 490 22,000 -350 Level Atlanta Center
Thu 09:43:53 AM 34.5008 -83.5675 226° Southwest 426 490 21,300 -1,500 Descending Atlanta Center
Thu 09:44:53 AM 34.4094 -83.6839 226° Southwest 419 482 19,000 -2,254 Descending Atlanta Center
Thu 09:47:02 AM 34.2500 -83.8833 226° Southwest 372 428 14,200 -2,000 Descending Atlanta TRACON
Thu 09:47:53 AM 34.1928 -83.9508 224° Southwest 378 435 13,000 -1,081 Descending Atlanta Center
Thu 09:48:53 AM 34.1261 -84.0086 216° Southwest 334 384 12,200 -1,116 Descending Atlanta Center
Thu 09:50:02 AM 34.0500 -84.0667 212° Southwest 285 328 10,600 -1,395 Descending Atlanta TRACON
Thu 09:51:02 AM 33.9833 -84.1000 203° Southwest 275 316 9,200 -842 Descending Atlanta TRACON
Thu 09:51:56 AM 33.9167 -84.1000 180° South 277 319 9,000 -811 Descending Atlanta TRACON
Thu 09:52:53 AM 33.8381 -84.0939 176° South 269 310 7,700 -1,179 Descending Atlanta Center
Thu 09:53:53 AM 33.7692 -84.0864 175° South 269 310 6,700 -952 Descending Atlanta Center
Thu 09:56:02 AM 33.6667 -84.1167 251° West 193 222 4,700 -857 Descending Atlanta TRACON
Thu 09:57:02 AM 33.6500 -84.1833 253° West 188 216 4,000 -474 Descending Atlanta TRACON
Thu 09:57:56 AM 33.6500 -84.2333 270° West 180 207 3,800 -579 Descending Atlanta TRACON
Thu 09:58:56 AM 33.6500 -84.2833 270° West 176 203 2,900 -842 Descending Atlanta TRACON
Thu 09:59:50 AM 33.6500 -84.3500 270° West 167 192 2,200 -800 Descending Atlanta TRACON
Thu 10:00:56 AM 33.6500 -84.4000 270° West 138 159 1,300 -818 Descending Atlanta TRACON
Thu 10:02:00 AM 33.6367 -84.4279 270° West  Level Estimated
Thu 10:09:00 AM 33.6367 -84.4279 103° East  Level Estimated
Thu 10:10:00 AM 33.6367 -84.4279 103° East  Level Estimated

Login

Don't have an account? Register now (free) for customized features, flight alerts, and more!